Time;durP1;ratioP1;P1;durP2;ratioP2;P2;SDS_P1;SDS_P2;PMS_P1;PMS_P2;Temp;Humidity;BMP_temperature;BMP_pressure;BME280_temperature;BME280_humidity;BME280_pressure;Samples;Min_cycle;Max_cycle;Signal;HPM_P1;HPM_P2
2023/06/07 00:01:25;;;;;;;8.83;5.83;;;;;;;;;;5114647;28;20216;-67
2023/06/07 00:03:53;;;;;;;9.63;7.50;;;;;;;;;;5127473;28;20730;-68
2023/06/07 00:06:22;;;;;;;13.17;10.83;;;;;;;;;;5138566;27;20254;-67
2023/06/07 00:08:52;;;;;;;22.47;16.80;;;;;;;;;;5120179;27;20612;-67
2023/06/07 00:11:21;;;;;;;19.67;17.53;;;;;;;;;;5118045;28;20203;-68
2023/06/07 00:13:49;;;;;;;23.27;15.90;;;;;;;;;;5117794;28;20914;-68
2023/06/07 00:16:18;;;;;;;16.00;13.80;;;;;;;;;;5117997;28;20247;-68
2023/06/07 00:18:46;;;;;;;15.13;12.23;;;;;;;;;;5118111;28;20303;-68
2023/06/07 00:21:14;;;;;;;14.43;12.43;;;;;;;;;;5118880;28;20308;-67
2023/06/07 00:23:42;;;;;;;16.83;11.20;;;;;;;;;;5122007;28;20271;-68
2023/06/07 00:26:12;;;;;;;12.70;11.40;;;;;;;;;;5121995;28;20249;-67
2023/06/07 00:28:40;;;;;;;12.33;9.93;;;;;;;;;;5121716;28;20267;-68
2023/06/07 00:31:08;;;;;;;14.77;9.50;;;;;;;;;;5122296;28;20215;-67
2023/06/07 00:33:37;;;;;;;10.30;8.40;;;;;;;;;;5121898;28;20640;-68
2023/06/07 00:36:05;;;;;;;11.87;7.80;;;;;;;;;;5122271;28;20234;-68
2023/06/07 00:38:33;;;;;;;9.60;7.77;;;;;;;;;;5121596;28;20259;-67
2023/06/07 00:41:02;;;;;;;11.20;7.83;;;;;;;;;;5122125;28;20577;-67
2023/06/07 00:43:31;;;;;;;9.50;7.23;;;;;;;;;;5121716;28;20291;-68
2023/06/07 00:45:59;;;;;;;9.50;7.60;;;;;;;;;;5121645;28;20744;-68
2023/06/07 00:48:28;;;;;;;7.90;6.83;;;;;;;;;;5121684;28;20688;-67
2023/06/07 00:50:56;;;;;;;8.97;7.17;;;;;;;;;;5121737;28;20617;-67
2023/06/07 00:53:25;;;;;;;7.63;6.33;;;;;;;;;;5121275;28;20263;-68
2023/06/07 00:55:53;;;;;;;9.07;6.53;;;;;;;;;;5121767;28;20262;-68
2023/06/07 00:58:21;;;;;;;7.93;7.20;;;;;;;;;;5121069;28;20402;-68
2023/06/07 01:00:51;;;;;;;9.67;6.73;;;;;;;;;;5121612;28;20208;-68
2023/06/07 01:03:21;;;;;;;11.50;6.30;;;;;;;;;;5116632;28;20262;-68
2023/06/07 01:05:50;;;;;;;7.60;6.53;;;;;;;;;;5121642;28;20251;-67
2023/06/07 01:08:20;;;;;;;9.80;6.50;;;;;;;;;;5121356;28;20207;-67
2023/06/07 01:10:49;;;;;;;9.70;6.73;;;;;;;;;;5121379;28;20569;-67
2023/06/07 01:13:17;;;;;;;9.27;6.30;;;;;;;;;;5120941;28;20681;-68
2023/06/07 01:15:46;;;;;;;10.30;6.83;;;;;;;;;;5121457;28;20268;-67
2023/06/07 01:18:15;;;;;;;10.57;6.23;;;;;;;;;;5121274;28;20307;-67
2023/06/07 01:20:46;;;;;;;8.13;6.70;;;;;;;;;;5121114;28;20819;-67
2023/06/07 01:23:15;;;;;;;7.10;6.07;;;;;;;;;;5120897;28;20216;-67
2023/06/07 01:25:45;;;;;;;7.90;7.10;;;;;;;;;;5121161;27;20241;-67
2023/06/07 01:28:14;;;;;;;7.47;5.77;;;;;;;;;;5120859;28;20217;-68
2023/06/07 01:30:42;;;;;;;6.13;5.40;;;;;;;;;;5121143;28;20204;-67
2023/06/07 01:33:10;;;;;;;6.60;5.87;;;;;;;;;;5107047;28;20288;-67
2023/06/07 01:35:39;;;;;;;7.27;6.10;;;;;;;;;;5120928;28;20237;-67
2023/06/07 01:38:08;;;;;;;7.83;5.17;;;;;;;;;;5120831;28;20227;-68
2023/06/07 01:40:37;;;;;;;6.50;5.83;;;;;;;;;;5120611;28;20209;-67
2023/06/07 01:43:09;;;;;;;6.27;5.47;;;;;;;;;;5120754;28;20210;-67
2023/06/07 01:45:38;;;;;;;8.70;6.13;;;;;;;;;;5120416;28;20225;-67
2023/06/07 01:48:09;;;;;;;7.43;5.47;;;;;;;;;;5120604;28;20202;-67
2023/06/07 01:50:38;;;;;;;10.93;5.40;;;;;;;;;;5120656;28;20209;-67
2023/06/07 01:53:06;;;;;;;5.47;4.97;;;;;;;;;;5109485;28;20614;-68
2023/06/07 01:55:34;;;;;;;10.20;5.37;;;;;;;;;;5120229;28;20288;-67
2023/06/07 01:58:11;;;;;;;6.90;5.23;;;;;;;;;;5122450;27;20231;-67
2023/06/07 02:00:43;;;;;;;5.23;4.73;;;;;;;;;;5121243;27;20196;-67
2023/06/07 02:03:16;;;;;;;6.83;5.60;;;;;;;;;;5117320;28;20201;-67
2023/06/07 02:05:48;;;;;;;5.83;5.07;;;;;;;;;;5120301;27;20331;-67
2023/06/07 02:08:20;;;;;;;10.30;5.23;;;;;;;;;;5120100;28;20201;-67
2023/06/07 02:10:49;;;;;;;7.33;5.33;;;;;;;;;;5118496;27;20568;-67
2023/06/07 02:13:18;;;;;;;6.40;5.23;;;;;;;;;;5119898;28;20193;-67
2023/06/07 02:15:48;;;;;;;6.67;5.13;;;;;;;;;;5120033;27;20226;-67
2023/06/07 02:18:19;;;;;;;6.93;5.40;;;;;;;;;;5120524;27;20221;-67
2023/06/07 02:20:48;;;;;;;7.77;5.37;;;;;;;;;;5121171;27;20251;-67
2023/06/07 02:23:16;;;;;;;6.87;5.23;;;;;;;;;;5120356;27;20198;-67
2023/06/07 02:25:44;;;;;;;5.63;5.07;;;;;;;;;;5119921;27;20240;-67
2023/06/07 02:28:13;;;;;;;5.77;4.57;;;;;;;;;;5121680;27;20262;-67
2023/06/07 02:30:41;;;;;;;5.83;5.30;;;;;;;;;;5119770;28;20251;-67
2023/06/07 02:33:13;;;;;;;6.43;5.40;;;;;;;;;;5117490;28;20287;-67
2023/06/07 02:35:44;;;;;;;6.17;5.47;;;;;;;;;;5120916;27;20556;-67
2023/06/07 02:38:13;;;;;;;7.17;5.30;;;;;;;;;;5122854;27;20310;-67
2023/06/07 02:40:41;;;;;;;6.00;4.90;;;;;;;;;;5140292;27;20215;-67
2023/06/07 02:43:09;;;;;;;6.67;5.40;;;;;;;;;;5139999;27;20255;-67
2023/06/07 02:45:37;;;;;;;9.47;5.40;;;;;;;;;;5121802;27;20598;-67
2023/06/07 02:48:07;;;;;;;5.83;5.33;;;;;;;;;;5119813;28;20232;-67
2023/06/07 02:50:36;;;;;;;5.80;5.20;;;;;;;;;;5119564;28;20209;-67
2023/06/07 02:53:06;;;;;;;6.67;5.27;;;;;;;;;;5118762;28;20236;-67
2023/06/07 02:55:34;;;;;;;7.37;5.50;;;;;;;;;;5119026;28;20227;-67
2023/06/07 02:58:02;;;;;;;10.70;5.60;;;;;;;;;;5118905;28;20224;-67
2023/06/07 03:00:31;;;;;;;5.70;5.00;;;;;;;;;;5119289;28;20203;-67
2023/06/07 03:02:59;;;;;;;5.30;4.80;;;;;;;;;;5114868;28;20288;-65
2023/06/07 03:05:28;;;;;;;5.77;5.27;;;;;;;;;;5118840;28;20681;-66
2023/06/07 03:07:59;;;;;;;6.33;4.87;;;;;;;;;;5118776;28;20604;-66
2023/06/07 03:10:28;;;;;;;6.77;5.57;;;;;;;;;;5118944;28;20644;-65
2023/06/07 03:12:56;;;;;;;6.40;5.80;;;;;;;;;;5118850;28;20216;-65
2023/06/07 03:15:24;;;;;;;8.27;5.60;;;;;;;;;;5118752;28;20227;-66
2023/06/07 03:17:52;;;;;;;7.60;5.53;;;;;;;;;;5119021;28;20221;-65
2023/06/07 03:20:21;;;;;;;6.57;5.90;;;;;;;;;;5118971;28;20228;-66
2023/06/07 03:22:49;;;;;;;8.33;6.13;;;;;;;;;;5119049;28;20208;-65
2023/06/07 03:25:19;;;;;;;7.63;5.73;;;;;;;;;;5118620;28;20264;-67
2023/06/07 03:27:47;;;;;;;11.83;7.27;;;;;;;;;;5118262;28;20579;-65
2023/06/07 03:30:15;;;;;;;7.77;5.77;;;;;;;;;;5118603;28;20660;-65
2023/06/07 03:32:44;;;;;;;6.33;5.63;;;;;;;;;;5118597;28;20220;-66
2023/06/07 03:35:12;;;;;;;6.67;5.70;;;;;;;;;;5118442;28;20239;-66
2023/06/07 03:37:40;;;;;;;6.90;6.20;;;;;;;;;;5118476;28;20204;-65
2023/06/07 03:40:09;;;;;;;6.03;5.43;;;;;;;;;;5118281;28;20229;-66
2023/06/07 03:42:39;;;;;;;7.90;6.13;;;;;;;;;;5118380;28;20209;-66
2023/06/07 03:45:07;;;;;;;6.77;5.90;;;;;;;;;;5118280;28;20664;-65
2023/06/07 03:47:37;;;;;;;6.87;5.80;;;;;;;;;;5118529;28;20201;-65
2023/06/07 03:50:06;;;;;;;8.77;6.33;;;;;;;;;;5118604;28;20236;-65
2023/06/07 03:52:34;;;;;;;9.30;5.93;;;;;;;;;;5115719;28;20229;-66
2023/06/07 03:55:03;;;;;;;9.17;6.23;;;;;;;;;;5109989;28;20607;-65
2023/06/07 03:57:32;;;;;;;6.90;5.87;;;;;;;;;;5117700;28;20212;-65
2023/06/07 04:00:05;;;;;;;6.33;5.73;;;;;;;;;;5118415;28;20226;-65
2023/06/07 04:02:34;;;;;;;7.47;5.83;;;;;;;;;;5109034;28;20238;-65
2023/06/07 04:05:03;;;;;;;8.13;6.03;;;;;;;;;;5118387;28;20212;-65
2023/06/07 04:07:32;;;;;;;7.70;6.13;;;;;;;;;;5118323;28;20287;-65
2023/06/07 04:10:00;;;;;;;7.90;6.33;;;;;;;;;;5118249;28;20258;-65
2023/06/07 04:12:28;;;;;;;9.93;6.43;;;;;;;;;;5117776;28;20201;-66
2023/06/07 04:14:56;;;;;;;8.57;6.37;;;;;;;;;;5118210;28;20211;-66
2023/06/07 04:17:26;;;;;;;8.53;6.37;;;;;;;;;;5118108;28;20247;-67
2023/06/07 04:19:56;;;;;;;8.67;6.93;;;;;;;;;;5117857;28;20636;-65
2023/06/07 04:22:25;;;;;;;7.87;5.77;;;;;;;;;;5118246;28;20277;-66
2023/06/07 04:24:54;;;;;;;8.13;6.00;;;;;;;;;;5117687;28;20664;-66
2023/06/07 04:27:23;;;;;;;7.83;5.93;;;;;;;;;;5117631;28;20264;-66
2023/06/07 04:29:53;;;;;;;7.47;6.37;;;;;;;;;;5117960;28;20675;-66
2023/06/07 04:32:21;;;;;;;9.97;6.33;;;;;;;;;;5117978;28;20548;-66
2023/06/07 04:34:51;;;;;;;9.90;7.20;;;;;;;;;;5117725;28;20257;-66
2023/06/07 04:37:19;;;;;;;9.00;6.13;;;;;;;;;;5117913;28;20211;-66
2023/06/07 04:39:48;;;;;;;13.07;6.90;;;;;;;;;;5117590;28;20237;-66
2023/06/07 04:42:17;;;;;;;9.07;6.17;;;;;;;;;;5117575;28;20718;-67
2023/06/07 04:44:45;;;;;;;8.77;6.70;;;;;;;;;;5117666;28;20202;-68
2023/06/07 04:47:17;;;;;;;8.80;6.50;;;;;;;;;;5117671;28;20226;-68
2023/06/07 04:49:51;;;;;;;8.30;7.27;;;;;;;;;;5118077;28;20202;-69
2023/06/07 04:52:21;;;;;;;7.87;7.13;;;;;;;;;;5117739;28;20221;-69
2023/06/07 04:54:50;;;;;;;9.87;7.20;;;;;;;;;;5117548;28;20686;-68
2023/06/07 04:57:18;;;;;;;9.60;8.43;;;;;;;;;;5117275;28;20581;-68
2023/06/07 04:59:48;;;;;;;10.27;7.13;;;;;;;;;;5117610;28;20230;-68
2023/06/07 05:02:17;;;;;;;10.87;8.07;;;;;;;;;;5113452;28;20218;-68
2023/06/07 05:04:46;;;;;;;10.83;8.67;;;;;;;;;;5117517;28;20246;-67
2023/06/07 05:07:14;;;;;;;10.00;8.17;;;;;;;;;;5117467;28;20293;-67
2023/06/07 05:09:43;;;;;;;13.70;8.97;;;;;;;;;;5120794;28;20209;-68
2023/06/07 05:12:12;;;;;;;9.40;8.47;;;;;;;;;;5121574;28;20294;-67
2023/06/07 05:14:40;;;;;;;12.63;8.43;;;;;;;;;;5121613;28;20209;-67
2023/06/07 05:17:09;;;;;;;9.87;8.57;;;;;;;;;;5121383;28;20632;-67
2023/06/07 05:19:37;;;;;;;12.23;9.77;;;;;;;;;;5121321;28;20229;-67
2023/06/07 05:22:07;;;;;;;10.60;9.50;;;;;;;;;;5121583;28;20210;-66
2023/06/07 05:24:35;;;;;;;12.33;9.60;;;;;;;;;;5121464;28;20235;-67
2023/06/07 05:27:05;;;;;;;11.27;9.30;;;;;;;;;;5120951;28;20222;-67
2023/06/07 05:29:34;;;;;;;14.40;9.90;;;;;;;;;;5121004;28;20231;-67
2023/06/07 05:32:02;;;;;;;16.63;10.03;;;;;;;;;;5121279;28;20210;-68
2023/06/07 05:34:30;;;;;;;12.73;10.43;;;;;;;;;;5120778;28;20207;-69
2023/06/07 05:37:00;;;;;;;13.33;10.17;;;;;;;;;;5120684;28;20234;-69
2023/06/07 05:39:28;;;;;;;12.10;10.27;;;;;;;;;;5120936;28;20286;-69
2023/06/07 05:41:56;;;;;;;14.67;10.30;;;;;;;;;;5120535;28;20209;-68
2023/06/07 05:44:26;;;;;;;11.90;10.10;;;;;;;;;;5120741;28;20208;-67
2023/06/07 05:46:54;;;;;;;15.23;9.53;;;;;;;;;;5120659;28;20319;-67
2023/06/07 05:49:23;;;;;;;12.67;9.63;;;;;;;;;;5120754;28;20211;-69
2023/06/07 05:51:51;;;;;;;10.90;9.80;;;;;;;;;;5120387;28;20253;-69
2023/06/07 05:54:19;;;;;;;11.33;9.83;;;;;;;;;;5117531;28;20309;-69
2023/06/07 05:56:48;;;;;;;11.27;9.70;;;;;;;;;;5104060;28;20678;-68
2023/06/07 05:59:16;;;;;;;13.57;9.00;;;;;;;;;;5118013;28;20209;-68
2023/06/07 06:01:46;;;;;;;13.70;10.13;;;;;;;;;;5113489;28;20300;-69
2023/06/07 06:04:15;;;;;;;11.83;9.50;;;;;;;;;;5138407;27;20614;-68
2023/06/07 06:06:45;;;;;;;11.07;9.47;;;;;;;;;;5140285;27;20239;-68
2023/06/07 06:09:13;;;;;;;9.90;8.77;;;;;;;;;;5106471;28;20796;-68
2023/06/07 06:11:42;;;;;;;13.30;9.30;;;;;;;;;;5119740;28;20727;-68
2023/06/07 06:14:10;;;;;;;10.40;9.30;;;;;;;;;;5120109;28;20212;-64
2023/06/07 06:16:38;;;;;;;12.73;9.10;;;;;;;;;;5119535;28;20590;-64
2023/06/07 06:19:08;;;;;;;12.27;9.80;;;;;;;;;;5119962;28;20324;-64
2023/06/07 06:21:37;;;;;;;10.10;8.97;;;;;;;;;;5134380;27;20254;-64
2023/06/07 06:24:06;;;;;;;11.70;9.67;;;;;;;;;;5137404;27;20238;-64
2023/06/07 06:26:34;;;;;;;10.90;9.13;;;;;;;;;;5106463;28;20215;-64
2023/06/07 06:29:02;;;;;;;11.80;9.67;;;;;;;;;;5130280;27;20225;-64
2023/06/07 06:31:31;;;;;;;13.23;10.10;;;;;;;;;;5127792;27;20207;-64
2023/06/07 06:33:59;;;;;;;14.83;10.23;;;;;;;;;;5119347;27;20209;-64
2023/06/07 06:36:29;;;;;;;13.43;9.73;;;;;;;;;;5126898;27;20224;-64
2023/06/07 06:38:57;;;;;;;12.47;9.63;;;;;;;;;;5139924;27;20208;-64
2023/06/07 06:41:26;;;;;;;10.67;8.87;;;;;;;;;;5139967;27;20223;-64
2023/06/07 06:43:54;;;;;;;12.83;9.37;;;;;;;;;;5137709;27;20288;-64
2023/06/07 06:46:22;;;;;;;11.83;10.40;;;;;;;;;;5119398;28;20233;-64
2023/06/07 06:48:50;;;;;;;10.73;9.63;;;;;;;;;;5119275;28;20201;-64
2023/06/07 06:51:39;;;;;;;14.43;10.13;;;;;;;;;;5120446;27;20190;-65
2023/06/07 06:54:12;;;;;;;10.83;9.73;;;;;;;;;;5116497;27;20230;-64
2023/06/07 06:56:40;;;;;;;9.87;8.80;;;;;;;;;;5118559;28;20224;-64
2023/06/07 06:59:08;;;;;;;13.03;10.13;;;;;;;;;;5114407;28;20206;-64
2023/06/07 07:01:45;;;;;;;13.87;9.87;;;;;;;;;;5112452;27;20262;-64
2023/06/07 07:04:16;;;;;;;11.70;9.50;;;;;;;;;;5106073;27;20615;-64
2023/06/07 07:06:47;;;;;;;14.47;10.03;;;;;;;;;;5102858;28;20222;-64
2023/06/07 07:09:15;;;;;;;11.57;9.50;;;;;;;;;;5118956;28;20287;-64
2023/06/07 07:11:43;;;;;;;11.47;9.43;;;;;;;;;;5118235;28;20249;-65
2023/06/07 07:14:11;;;;;;;12.73;9.90;;;;;;;;;;5118725;28;20201;-65
2023/06/07 07:16:39;;;;;;;10.80;9.50;;;;;;;;;;5116890;28;20222;-64
2023/06/07 07:19:08;;;;;;;12.30;9.77;;;;;;;;;;5118878;28;20208;-64
2023/06/07 07:21:37;;;;;;;12.97;9.33;;;;;;;;;;5118313;28;20333;-65
2023/06/07 07:24:07;;;;;;;10.53;9.17;;;;;;;;;;5118534;28;20667;-64
2023/06/07 07:26:38;;;;;;;9.73;8.73;;;;;;;;;;5114333;28;20227;-63
2023/06/07 07:29:07;;;;;;;11.57;9.60;;;;;;;;;;5114110;27;20289;-67
2023/06/07 07:31:35;;;;;;;12.60;9.70;;;;;;;;;;5128099;27;20207;-68
2023/06/07 07:34:04;;;;;;;11.17;9.03;;;;;;;;;;5117784;28;20267;-68
2023/06/07 07:36:33;;;;;;;10.40;9.30;;;;;;;;;;5118573;27;20222;-67
2023/06/07 07:39:04;;;;;;;12.53;10.03;;;;;;;;;;5115436;28;20197;-68
2023/06/07 07:41:40;;;;;;;11.40;9.10;;;;;;;;;;5120496;27;20256;-67
2023/06/07 07:44:11;;;;;;;9.63;8.60;;;;;;;;;;5116730;28;20211;-68
2023/06/07 07:46:39;;;;;;;10.93;9.43;;;;;;;;;;5116551;28;20602;-67
2023/06/07 07:49:08;;;;;;;10.37;8.77;;;;;;;;;;5117764;27;20798;-67
2023/06/07 07:51:37;;;;;;;11.07;9.43;;;;;;;;;;5119814;27;20222;-63
2023/06/07 07:54:06;;;;;;;14.63;8.53;;;;;;;;;;5114669;28;20300;-62
2023/06/07 07:56:35;;;;;;;13.20;9.37;;;;;;;;;;5118979;28;20216;-62
2023/06/07 07:59:03;;;;;;;10.57;8.53;;;;;;;;;;5121736;27;20208;-62
2023/06/07 08:01:32;;;;;;;9.77;8.77;;;;;;;;;;5130371;27;20218;-62
2023/06/07 08:04:00;;;;;;;10.63;9.20;;;;;;;;;;5117941;28;20197;-63
2023/06/07 08:06:29;;;;;;;12.80;9.30;;;;;;;;;;5118230;28;20216;-63
2023/06/07 08:08:57;;;;;;;9.47;8.57;;;;;;;;;;5117422;28;20229;-63
2023/06/07 08:11:25;;;;;;;9.47;8.57;;;;;;;;;;5119925;28;20198;-63
2023/06/07 08:13:55;;;;;;;21.87;10.90;;;;;;;;;;5120476;27;20203;-64
2023/06/07 08:16:23;;;;;;;16.90;9.77;;;;;;;;;;5121237;28;20224;-62
2023/06/07 08:18:56;;;;;;;9.37;8.47;;;;;;;;;;5122837;27;20275;-63
2023/06/07 08:21:24;;;;;;;36.53;12.53;;;;;;;;;;5115347;28;20226;-63
2023/06/07 08:23:53;;;;;;;46.10;12.80;;;;;;;;;;5118039;28;20291;-64
2023/06/07 08:26:22;;;;;;;12.03;9.40;;;;;;;;;;5109906;28;20218;-67
2023/06/07 08:28:50;;;;;;;12.37;8.93;;;;;;;;;;5118148;28;20196;-63
2023/06/07 08:31:19;;;;;;;24.67;11.30;;;;;;;;;;5115473;28;20564;-62
2023/06/07 08:33:48;;;;;;;11.77;9.57;;;;;;;;;;5100716;28;20563;-61
2023/06/07 08:36:17;;;;;;;14.57;9.87;;;;;;;;;;5117432;28;20248;-63
2023/06/07 08:38:46;;;;;;;12.20;8.97;;;;;;;;;;5116689;28;20200;-69
2023/06/07 08:41:21;;;;;;;11.60;8.90;;;;;;;;;;5118678;28;20230;-69
2023/06/07 08:43:49;;;;;;;15.17;9.60;;;;;;;;;;5117488;28;20202;-67
2023/06/07 08:46:20;;;;;;;10.47;8.37;;;;;;;;;;5121427;28;20231;-69
2023/06/07 08:48:49;;;;;;;12.27;9.33;;;;;;;;;;5121460;27;20613;-70
2023/06/07 08:51:21;;;;;;;11.23;8.80;;;;;;;;;;5120482;28;20276;-68
2023/06/07 08:53:55;;;;;;;12.23;9.57;;;;;;;;;;5115335;28;20797;-67
2023/06/07 08:56:24;;;;;;;11.60;9.47;;;;;;;;;;5132655;27;20289;-68
2023/06/07 08:58:52;;;;;;;10.33;8.03;;;;;;;;;;5129832;27;20198;-68
2023/06/07 09:01:23;;;;;;;14.03;9.97;;;;;;;;;;5120947;27;20259;-68
2023/06/07 09:03:52;;;;;;;12.57;9.27;;;;;;;;;;5121792;27;20217;-68
2023/06/07 09:06:21;;;;;;;13.37;9.37;;;;;;;;;;5123239;27;20304;-69
2023/06/07 09:08:49;;;;;;;10.20;8.80;;;;;;;;;;5121042;28;20279;-68
2023/06/07 09:11:17;;;;;;;12.97;9.20;;;;;;;;;;5118291;28;20752;-68
2023/06/07 09:13:46;;;;;;;9.20;8.27;;;;;;;;;;5118497;27;20194;-67
2023/06/07 09:16:14;;;;;;;9.60;8.57;;;;;;;;;;5120621;28;20314;-68
2023/06/07 09:18:45;;;;;;;10.23;7.90;;;;;;;;;;5124470;27;20202;-68
2023/06/07 09:21:21;;;;;;;8.70;7.80;;;;;;;;;;5120685;28;20199;-68
2023/06/07 09:23:49;;;;;;;9.80;7.43;;;;;;;;;;5118949;28;20229;-69
2023/06/07 09:26:18;;;;;;;8.50;7.63;;;;;;;;;;5119994;28;20260;-69
2023/06/07 09:28:46;;;;;;;10.23;8.20;;;;;;;;;;5120873;28;20248;-69
2023/06/07 09:31:32;;;;;;;8.77;7.83;;;;;;;;;;5112729;28;20211;-67
2023/06/07 09:34:19;;;;;;;10.57;7.87;;;;;;;;;;5120483;28;20290;-68
2023/06/07 09:36:51;;;;;;;10.00;7.80;;;;;;;;;;5120467;27;20244;-71
2023/06/07 09:39:21;;;;;;;9.43;6.70;;;;;;;;;;5117645;28;20206;-73
2023/06/07 09:41:50;;;;;;;8.57;7.50;;;;;;;;;;5117599;28;20473;-71
2023/06/07 09:44:25;;;;;;;10.70;7.83;;;;;;;;;;5120386;28;20203;-71
2023/06/07 09:46:53;;;;;;;9.33;7.07;;;;;;;;;;5127675;27;20229;-68
2023/06/07 09:49:28;;;;;;;8.40;7.00;;;;;;;;;;5141338;27;20210;-70
2023/06/07 09:51:56;;;;;;;8.90;7.10;;;;;;;;;;5141370;27;20230;-70
2023/06/07 09:54:45;;;;;;;8.67;7.20;;;;;;;;;;5140168;27;20326;-68
2023/06/07 09:57:28;;;;;;;8.37;6.30;;;;;;;;;;5135922;27;20233;-70
2023/06/07 09:59:58;;;;;;;7.70;6.80;;;;;;;;;;5140949;27;20255;-69
2023/06/07 10:02:27;;;;;;;8.07;6.93;;;;;;;;;;5118081;27;20228;-68
2023/06/07 10:04:59;;;;;;;7.77;6.90;;;;;;;;;;5120276;28;20678;-70
2023/06/07 10:07:28;;;;;;;10.73;7.00;;;;;;;;;;5119975;28;20639;-69
2023/06/07 10:09:58;;;;;;;10.57;7.40;;;;;;;;;;5111217;28;20210;-67
2023/06/07 10:12:28;;;;;;;9.40;7.17;;;;;;;;;;5103304;27;20204;-65
2023/06/07 10:14:57;;;;;;;7.17;6.40;;;;;;;;;;5140712;27;20200;-65
2023/06/07 10:17:28;;;;;;;6.80;6.20;;;;;;;;;;5120797;27;20207;-65
2023/06/07 10:20:00;;;;;;;9.37;6.73;;;;;;;;;;5120238;28;20205;-65
2023/06/07 10:22:33;;;;;;;7.13;6.43;;;;;;;;;;5117189;28;20224;-65
2023/06/07 10:25:04;;;;;;;7.30;6.67;;;;;;;;;;5108034;27;20194;-64
2023/06/07 10:27:35;;;;;;;13.07;6.87;;;;;;;;;;5129386;27;20287;-64
2023/06/07 10:30:08;;;;;;;9.13;7.30;;;;;;;;;;5127792;27;20817;-63
2023/06/07 10:32:38;;;;;;;12.13;7.13;;;;;;;;;;5133663;27;20666;-63
2023/06/07 10:35:09;;;;;;;7.47;6.47;;;;;;;;;;5140252;27;20212;-63
2023/06/07 10:37:43;;;;;;;9.03;6.20;;;;;;;;;;5140138;27;20235;-63
2023/06/07 10:40:14;;;;;;;6.37;5.77;;;;;;;;;;5139974;27;20209;-64
2023/06/07 10:42:44;;;;;;;9.67;7.47;;;;;;;;;;5123763;27;20213;-64
2023/06/07 10:45:15;;;;;;;7.43;6.20;;;;;;;;;;5117073;27;20217;-64
2023/06/07 10:47:45;;;;;;;7.13;6.43;;;;;;;;;;5120052;27;20207;-64
2023/06/07 10:50:32;;;;;;;7.07;6.17;;;;;;;;;;5119456;28;20340;-64
2023/06/07 10:53:02;;;;;;;11.23;6.60;;;;;;;;;;5127450;27;20276;-69
2023/06/07 10:55:31;;;;;;;10.97;7.67;;;;;;;;;;5139634;27;20264;-70
2023/06/07 10:58:00;;;;;;;9.03;7.03;;;;;;;;;;5139518;27;20260;-68
2023/06/07 11:00:30;;;;;;;7.70;6.10;;;;;;;;;;5132046;27;20286;-67
2023/06/07 11:03:18;;;;;;;10.13;6.33;;;;;;;;;;5118659;28;20213;-68
2023/06/07 11:06:06;;;;;;;12.53;7.30;;;;;;;;;;5115702;27;20219;-68
2023/06/07 11:08:37;;;;;;;8.50;6.60;;;;;;;;;;5119029;27;20204;-68
2023/06/07 11:11:19;;;;;;;7.53;6.80;;;;;;;;;;5115724;28;20660;-68
2023/06/07 11:14:06;;;;;;;7.67;6.73;;;;;;;;;;5117398;28;20274;-68
2023/06/07 11:16:35;;;;;;;7.27;6.07;;;;;;;;;;5119477;27;20227;-68
2023/06/07 11:19:05;;;;;;;7.30;6.27;;;;;;;;;;5120981;27;20207;-68
2023/06/07 11:21:48;;;;;;;6.90;5.97;;;;;;;;;;5118399;28;20206;-68
2023/06/07 11:24:18;;;;;;;7.70;6.43;;;;;;;;;;5123415;27;20216;-68
2023/06/07 11:26:47;;;;;;;7.27;5.83;;;;;;;;;;5129017;27;20251;-67
2023/06/07 11:29:16;;;;;;;5.97;5.07;;;;;;;;;;5123213;27;20201;-69
2023/06/07 11:31:46;;;;;;;7.13;6.47;;;;;;;;;;5129379;27;20196;-67
2023/06/07 11:34:15;;;;;;;6.37;5.77;;;;;;;;;;5129962;27;20194;-67
2023/06/07 11:36:44;;;;;;;5.67;5.17;;;;;;;;;;5128415;27;20318;-68
2023/06/07 11:39:16;;;;;;;7.07;5.20;;;;;;;;;;5119874;27;20202;-66
2023/06/07 11:41:52;;;;;;;6.37;4.87;;;;;;;;;;5127060;27;20277;-67
2023/06/07 11:44:21;;;;;;;7.07;5.23;;;;;;;;;;5124271;27;20223;-67
2023/06/07 11:46:50;;;;;;;6.23;5.63;;;;;;;;;;5128619;27;20213;-67
2023/06/07 11:49:18;;;;;;;7.07;5.87;;;;;;;;;;5127279;27;20220;-67
2023/06/07 11:51:49;;;;;;;7.63;5.27;;;;;;;;;;5125535;27;20234;-68
2023/06/07 11:54:18;;;;;;;7.40;5.77;;;;;;;;;;5118055;28;20239;-68
2023/06/07 11:56:48;;;;;;;6.53;4.90;;;;;;;;;;5135170;27;20314;-68
2023/06/07 11:59:21;;;;;;;6.90;5.00;;;;;;;;;;5139358;27;20654;-67
2023/06/07 12:01:51;;;;;;;5.97;5.17;;;;;;;;;;5131656;27;20257;-68
2023/06/07 12:04:20;;;;;;;5.57;4.90;;;;;;;;;;5118358;28;20235;-67
2023/06/07 12:06:49;;;;;;;5.20;4.70;;;;;;;;;;5118043;28;20287;-67
2023/06/07 12:09:18;;;;;;;10.20;5.70;;;;;;;;;;5117889;28;20216;-67
2023/06/07 12:11:47;;;;;;;6.00;5.40;;;;;;;;;;5117597;28;20215;-67
2023/06/07 12:14:35;;;;;;;6.13;5.53;;;;;;;;;;5117978;28;20203;-68
2023/06/07 12:17:04;;;;;;;6.27;4.93;;;;;;;;;;5118866;28;20239;-68
2023/06/07 12:19:32;;;;;;;6.90;5.30;;;;;;;;;;5119958;28;20226;-68
2023/06/07 12:22:04;;;;;;;5.97;5.30;;;;;;;;;;5113702;28;20214;-68
2023/06/07 12:24:36;;;;;;;7.63;5.97;;;;;;;;;;5122046;28;20229;-68
2023/06/07 12:27:05;;;;;;;10.47;6.03;;;;;;;;;;5122165;28;20232;-68
2023/06/07 12:29:35;;;;;;;12.20;5.23;;;;;;;;;;5122065;28;20216;-68
2023/06/07 12:32:04;;;;;;;6.17;5.30;;;;;;;;;;5122046;27;20205;-68
2023/06/07 12:34:32;;;;;;;7.93;5.27;;;;;;;;;;5122035;28;20608;-68
2023/06/07 12:37:00;;;;;;;6.10;5.53;;;;;;;;;;5122214;27;20230;-67
2023/06/07 12:39:29;;;;;;;5.70;5.17;;;;;;;;;;5121854;28;20207;-67
2023/06/07 12:41:57;;;;;;;5.53;5.00;;;;;;;;;;5121851;28;20214;-67
2023/06/07 12:44:26;;;;;;;7.00;5.83;;;;;;;;;;5122034;28;20228;-67
2023/06/07 12:46:56;;;;;;;6.73;5.70;;;;;;;;;;5136560;27;20227;-67
2023/06/07 12:49:25;;;;;;;6.83;5.83;;;;;;;;;;5142636;27;20203;-67
2023/06/07 12:51:53;;;;;;;5.63;4.87;;;;;;;;;;5142378;27;20207;-67
2023/06/07 12:54:21;;;;;;;5.70;5.10;;;;;;;;;;5141960;27;20237;-67
2023/06/07 12:56:50;;;;;;;5.67;5.07;;;;;;;;;;5141701;27;20273;-67
2023/06/07 12:59:18;;;;;;;6.20;5.30;;;;;;;;;;5142324;27;20287;-67
2023/06/07 13:01:47;;;;;;;8.07;5.80;;;;;;;;;;5132060;27;20295;-68
2023/06/07 13:04:16;;;;;;;10.23;5.60;;;;;;;;;;5121655;28;20238;-67
2023/06/07 13:06:44;;;;;;;7.00;5.20;;;;;;;;;;5121178;28;20223;-67
2023/06/07 13:09:13;;;;;;;6.50;5.50;;;;;;;;;;5121277;28;20207;-67
2023/06/07 13:11:42;;;;;;;8.13;5.27;;;;;;;;;;5120979;28;20234;-67
2023/06/07 13:14:11;;;;;;;6.50;5.40;;;;;;;;;;5121317;28;20199;-67
2023/06/07 13:16:39;;;;;;;6.97;5.10;;;;;;;;;;5121159;28;20231;-67
2023/06/07 13:19:08;;;;;;;8.30;5.83;;;;;;;;;;5121215;28;20207;-67
2023/06/07 13:21:37;;;;;;;5.87;5.27;;;;;;;;;;5121039;28;20214;-68
2023/06/07 13:24:06;;;;;;;5.57;4.77;;;;;;;;;;5120977;28;20220;-67
2023/06/07 13:26:35;;;;;;;7.20;5.37;;;;;;;;;;5120813;28;20216;-67
2023/06/07 13:29:03;;;;;;;5.90;5.33;;;;;;;;;;5120021;28;20641;-67
2023/06/07 13:31:31;;;;;;;6.17;5.57;;;;;;;;;;5107621;28;20243;-67
2023/06/07 13:34:01;;;;;;;6.70;5.17;;;;;;;;;;5120757;28;20756;-67
2023/06/07 13:36:29;;;;;;;6.60;6.00;;;;;;;;;;5120868;28;20232;-67
2023/06/07 13:38:59;;;;;;;5.17;4.67;;;;;;;;;;5120905;28;20212;-67
2023/06/07 13:41:27;;;;;;;5.70;5.10;;;;;;;;;;5120545;28;20565;-67
2023/06/07 13:43:58;;;;;;;10.97;5.83;;;;;;;;;;5121023;28;20238;-67
2023/06/07 13:46:44;;;;;;;10.37;5.63;;;;;;;;;;5120568;28;20630;-68
2023/06/07 13:49:13;;;;;;;24.67;8.10;;;;;;;;;;5120880;28;20210;-68
2023/06/07 13:51:42;;;;;;;6.93;5.30;;;;;;;;;;5121008;28;20203;-68
2023/06/07 13:54:11;;;;;;;5.40;4.53;;;;;;;;;;5120342;28;20247;-67
2023/06/07 13:56:40;;;;;;;6.50;4.90;;;;;;;;;;5120109;28;20587;-68
2023/06/07 13:59:08;;;;;;;5.20;4.38;;;;;;;;;;5120531;28;20208;-68
2023/06/07 14:01:37;;;;;;;6.40;5.00;;;;;;;;;;5120545;28;20232;-68
2023/06/07 14:04:07;;;;;;;4.63;4.22;;;;;;;;;;5120521;28;20206;-67
2023/06/07 14:06:37;;;;;;;7.55;4.93;;;;;;;;;;5120181;28;20690;-68
2023/06/07 14:09:06;;;;;;;5.82;4.38;;;;;;;;;;5120356;28;20206;-68
2023/06/07 14:11:37;;;;;;;4.60;3.83;;;;;;;;;;5120101;28;20204;-68
2023/06/07 14:14:05;;;;;;;8.05;5.07;;;;;;;;;;5120437;28;20209;-68
2023/06/07 14:16:33;;;;;;;5.40;4.32;;;;;;;;;;5119984;28;20619;-67
2023/06/07 14:19:02;;;;;;;5.43;4.60;;;;;;;;;;5120320;28;20200;-68
2023/06/07 14:21:32;;;;;;;4.57;4.28;;;;;;;;;;5111382;28;20599;-68
2023/06/07 14:24:00;;;;;;;7.57;4.60;;;;;;;;;;5118689;28;20211;-68
2023/06/07 14:26:29;;;;;;;7.25;5.30;;;;;;;;;;5119597;28;20238;-67
2023/06/07 14:28:58;;;;;;;6.95;5.07;;;;;;;;;;5119766;28;20574;-68
2023/06/07 14:31:27;;;;;;;5.93;4.38;;;;;;;;;;5119827;28;20613;-67
2023/06/07 14:33:55;;;;;;;6.40;4.90;;;;;;;;;;5119727;28;20684;-68
2023/06/07 14:36:23;;;;;;;6.07;4.68;;;;;;;;;;5119867;28;20255;-67
2023/06/07 14:38:51;;;;;;;5.20;4.70;;;;;;;;;;5119814;28;20210;-68
2023/06/07 14:41:20;;;;;;;7.57;5.25;;;;;;;;;;5119539;28;20225;-67
2023/06/07 14:43:48;;;;;;;5.75;4.68;;;;;;;;;;5119815;28;20209;-67
2023/06/07 14:46:18;;;;;;;7.40;4.93;;;;;;;;;;5119301;28;20262;-67
2023/06/07 14:48:50;;;;;;;5.45;4.95;;;;;;;;;;5119452;28;20274;-68
2023/06/07 14:51:22;;;;;;;7.10;5.07;;;;;;;;;;5119649;28;20284;-67
2023/06/07 14:53:51;;;;;;;6.22;5.53;;;;;;;;;;5119155;28;20599;-67